createdAt,value
2018-06-11T00:17:20.781Z,953.14
2018-06-11T00:18:11.745Z,953.19
2018-06-11T00:19:11.772Z,953.15
2018-06-11T00:20:11.798Z,953.11
2018-06-11T00:21:11.829Z,953.11
2018-06-11T00:22:11.852Z,953.12
2018-06-11T00:23:11.878Z,953.13
2018-06-11T00:24:11.905Z,953.12
2018-06-11T00:25:11.937Z,953.13
2018-06-11T00:26:11.958Z,953.12
2018-06-11T00:27:11.985Z,953.08
2018-06-11T00:28:12.013Z,953.07
2018-06-11T00:29:12.039Z,953.06
2018-06-11T00:30:12.067Z,953.01
2018-06-11T00:31:12.092Z,953.03
2018-06-11T00:32:12.121Z,953.02
2018-06-11T00:33:12.150Z,953.04
2018-06-11T00:34:12.172Z,952.98
2018-06-11T00:35:12.198Z,952.98
2018-06-11T00:36:12.225Z,953
2018-06-11T00:37:12.253Z,952.97
2018-06-11T00:38:12.278Z,952.95
2018-06-11T00:39:12.304Z,952.97
2018-06-11T00:40:12.333Z,952.98
2018-06-11T00:41:12.359Z,952.95
2018-06-11T00:42:12.384Z,952.96
2018-06-11T00:43:12.411Z,952.97
2018-06-11T00:44:12.440Z,952.97
2018-06-11T00:45:12.464Z,952.96
2018-06-11T00:46:12.491Z,952.95
2018-06-11T00:47:12.518Z,952.96
2018-06-11T00:48:12.598Z,952.95
2018-06-11T00:49:12.573Z,952.97
2018-06-11T00:50:12.597Z,952.93
2018-06-11T00:51:12.623Z,952.94
2018-06-11T00:52:12.649Z,952.92
2018-06-11T00:53:12.678Z,952.92
2018-06-11T00:54:12.703Z,952.96
2018-06-11T00:55:12.730Z,952.95
2018-06-11T00:56:12.756Z,952.96
2018-06-11T00:57:12.783Z,952.94
2018-06-11T00:58:12.808Z,952.9
2018-06-11T00:59:12.835Z,952.95
2018-06-11T01:00:12.860Z,952.95
2018-06-11T01:01:12.888Z,952.96
2018-06-11T01:02:12.914Z,952.92
2018-06-11T01:03:12.990Z,952.96
2018-06-11T01:04:12.967Z,952.99
2018-06-11T01:05:12.994Z,953
2018-06-11T01:06:13.020Z,953
2018-06-11T01:07:13.045Z,952.96
2018-06-11T01:08:13.071Z,953.03
2018-06-11T01:09:13.098Z,953.03
2018-06-11T01:10:13.127Z,953.02
2018-06-11T01:11:13.153Z,952.96
2018-06-11T01:12:13.178Z,952.95
2018-06-11T01:13:13.206Z,952.92
2018-06-11T01:14:13.232Z,952.93
2018-06-11T01:15:13.257Z,952.92
2018-06-11T01:16:13.284Z,952.91
2018-06-11T01:17:13.312Z,952.92
2018-06-11T01:18:13.386Z,952.96
2018-06-11T01:19:13.365Z,952.94
2018-06-11T01:20:13.389Z,952.98
2018-06-11T01:21:13.416Z,952.92
2018-06-11T01:22:13.443Z,952.96
2018-06-11T01:23:13.470Z,952.92
2018-06-11T01:24:13.496Z,952.92
2018-06-11T01:25:13.522Z,952.93
2018-06-11T01:26:13.549Z,952.96
2018-06-11T01:27:13.574Z,952.99
2018-06-11T01:28:13.601Z,953
2018-06-11T01:29:13.627Z,952.98
2018-06-11T01:30:13.653Z,953
2018-06-11T01:31:13.679Z,953.02
2018-06-11T01:32:13.706Z,953.05
2018-06-11T01:33:13.783Z,953.05
2018-06-11T01:34:13.758Z,953
2018-06-11T01:35:13.784Z,953.06
2018-06-11T01:36:13.811Z,953.05
2018-06-11T01:37:13.837Z,953.02
2018-06-11T01:38:13.864Z,953.03
2018-06-11T01:39:13.890Z,953.01
2018-06-11T01:40:13.916Z,953.03
2018-06-11T01:41:13.944Z,953
2018-06-11T01:42:13.974Z,952.99
2018-06-11T01:43:13.997Z,953.01
2018-06-11T01:44:14.022Z,953.03
2018-06-11T01:45:14.050Z,953
2018-06-11T01:46:14.076Z,953.01
2018-06-11T01:47:14.100Z,953.02
2018-06-11T01:48:14.178Z,952.98
2018-06-11T01:49:14.154Z,952.95
2018-06-11T01:50:14.181Z,952.98
2018-06-11T01:51:14.206Z,952.94
2018-06-11T01:52:14.236Z,952.98
2018-06-11T01:53:14.258Z,952.99
2018-06-11T01:54:14.287Z,952.97
2018-06-11T01:55:14.312Z,953
2018-06-11T01:56:14.339Z,952.98
2018-06-11T01:57:14.366Z,952.97
2018-06-11T01:58:14.391Z,952.99
2018-06-11T01:59:14.418Z,952.99
2018-06-11T02:00:14.445Z,952.95
2018-06-11T02:01:14.471Z,952.94
2018-06-11T02:02:14.496Z,952.99
2018-06-11T02:03:14.575Z,952.97
2018-06-11T02:04:14.549Z,952.97
2018-06-11T02:05:14.577Z,952.96
2018-06-11T02:06:14.603Z,952.93
2018-06-11T02:07:14.632Z,952.94
2018-06-11T02:08:14.655Z,952.89
2018-06-11T02:09:14.682Z,952.87
2018-06-11T02:10:14.708Z,952.88
2018-06-11T02:11:14.734Z,952.89
2018-06-11T02:12:14.762Z,952.89
2018-06-11T02:13:14.786Z,952.91
2018-06-11T02:14:14.813Z,952.93
2018-06-11T02:15:14.841Z,952.89
2018-06-11T02:16:14.865Z,952.84
2018-06-11T02:17:14.891Z,952.87
2018-06-11T02:18:14.967Z,952.86
2018-06-11T02:19:14.943Z,952.85
2018-06-11T02:20:14.969Z,952.81
2018-06-11T02:21:14.995Z,952.83
2018-06-11T02:22:15.027Z,952.76
2018-06-11T02:23:15.050Z,952.84
2018-06-11T02:24:15.074Z,952.84
2018-06-11T02:25:15.100Z,952.81
2018-06-11T02:26:15.126Z,952.85
2018-06-11T02:27:15.149Z,952.83
2018-06-11T02:28:15.176Z,952.83
2018-06-11T02:29:15.204Z,952.75
2018-06-11T02:30:15.229Z,952.74
2018-06-11T02:31:15.262Z,952.71
2018-06-11T02:32:15.291Z,952.75
2018-06-11T02:33:15.357Z,952.73
2018-06-11T02:34:15.336Z,952.71
2018-06-11T02:35:15.359Z,952.7
2018-06-11T02:36:15.385Z,952.64
2018-06-11T02:37:15.413Z,952.64
2018-06-11T02:38:15.438Z,952.65
2018-06-11T02:39:15.478Z,952.62
2018-06-11T02:40:15.489Z,952.64
2018-06-11T02:41:15.514Z,952.61
2018-06-11T02:42:15.550Z,952.59
2018-06-11T02:43:15.567Z,952.56
2018-06-11T02:44:15.594Z,952.55
2018-06-11T02:45:15.620Z,952.54
2018-06-11T02:46:15.648Z,952.57
2018-06-11T02:47:15.673Z,952.54
2018-06-11T02:48:15.749Z,952.55
2018-06-11T02:49:15.724Z,952.57
2018-06-11T02:50:15.750Z,952.61
2018-06-11T02:51:15.777Z,952.58
2018-06-11T02:52:15.803Z,952.61
2018-06-11T02:53:15.929Z,952.6
2018-06-11T02:54:15.855Z,952.58
2018-06-11T02:55:15.884Z,952.58
2018-06-11T02:56:15.905Z,952.54
2018-06-11T02:57:15.932Z,952.52
2018-06-11T02:58:15.957Z,952.51
2018-06-11T02:59:15.986Z,952.48
2018-06-11T03:00:16.012Z,952.51
2018-06-11T03:01:16.036Z,952.51
2018-06-11T03:02:16.062Z,952.49
2018-06-11T03:03:16.156Z,952.47
2018-06-11T03:04:16.112Z,952.5
2018-06-11T03:05:16.140Z,952.46
2018-06-11T03:06:16.172Z,952.53
2018-06-11T03:07:16.191Z,952.5
2018-06-11T03:08:16.218Z,952.49
2018-06-11T03:09:16.244Z,952.49
2018-06-11T03:10:16.269Z,952.5
2018-06-11T03:11:16.293Z,952.51
2018-06-11T03:12:16.320Z,952.52
2018-06-11T03:13:16.348Z,952.45
2018-06-11T03:14:16.373Z,952.45
2018-06-11T03:15:16.399Z,952.5
2018-06-11T03:16:16.424Z,952.51
2018-06-11T03:17:16.457Z,952.46
2018-06-11T03:18:16.528Z,952.48
2018-06-11T03:19:16.503Z,952.47
2018-06-11T03:20:16.528Z,952.47
2018-06-11T03:21:16.554Z,952.46
2018-06-11T03:22:16.580Z,952.43
2018-06-11T03:23:16.607Z,952.43
2018-06-11T03:24:16.633Z,952.41
2018-06-11T03:25:16.660Z,952.39
2018-06-11T03:26:16.685Z,952.39
2018-06-11T03:27:16.710Z,952.36
2018-06-11T03:28:16.735Z,952.32
2018-06-11T03:29:16.761Z,952.34
2018-06-11T03:30:16.792Z,952.32
2018-06-11T03:31:16.813Z,952.32
2018-06-11T03:32:16.838Z,952.33
2018-06-11T03:33:16.913Z,952.34
2018-06-11T03:34:16.889Z,952.33
2018-06-11T03:35:16.918Z,952.28
2018-06-11T03:36:16.944Z,952.35
2018-06-11T03:37:16.969Z,952.33
2018-06-11T03:38:16.994Z,952.32
2018-06-11T03:39:17.020Z,952.28
2018-06-11T03:40:17.047Z,952.26
2018-06-11T03:41:17.072Z,952.28
2018-06-11T03:42:17.098Z,952.28
2018-06-11T03:43:17.126Z,952.27
2018-06-11T03:44:17.151Z,952.31
2018-06-11T03:45:17.177Z,952.3
2018-06-11T03:46:17.202Z,952.34
2018-06-11T03:47:17.229Z,952.3
2018-06-11T03:48:17.353Z,952.34
2018-06-11T03:49:17.281Z,952.36
2018-06-11T03:50:17.306Z,952.37
2018-06-11T03:51:17.331Z,952.34
2018-06-11T03:52:17.357Z,952.32
2018-06-11T03:53:17.384Z,952.29
2018-06-11T03:54:17.410Z,952.26
2018-06-11T03:55:17.436Z,952.27
2018-06-11T03:56:17.462Z,952.24
2018-06-11T03:57:17.488Z,952.23
2018-06-11T03:58:17.516Z,952.24
2018-06-11T03:59:17.539Z,952.2
2018-06-11T04:00:17.565Z,952.18
2018-06-11T04:01:17.591Z,952.19
2018-06-11T04:02:17.615Z,952.18
2018-06-11T04:03:18.693Z,952.2
2018-06-11T04:04:17.667Z,952.16
2018-06-11T04:05:17.694Z,952.19
2018-06-11T04:06:17.721Z,952.18
2018-06-11T04:07:17.746Z,952.19
2018-06-11T04:08:17.772Z,952.18
2018-06-11T04:09:17.798Z,952.18
2018-06-11T04:10:17.826Z,952.14
2018-06-11T04:11:17.849Z,952.16
2018-06-11T04:12:17.873Z,952.11
2018-06-11T04:13:17.899Z,952.16
2018-06-11T04:14:17.933Z,952.19
2018-06-11T04:15:17.951Z,952.16
2018-06-11T04:16:17.977Z,952.18
2018-06-11T04:17:18.001Z,952.19
2018-06-11T04:18:18.032Z,952.16
2018-06-11T04:19:18.058Z,952.2
2018-06-11T04:20:18.083Z,952.21
2018-06-11T04:21:18.108Z,952.2
2018-06-11T04:22:18.154Z,952.22
2018-06-11T04:23:18.160Z,952.22
2018-06-11T04:24:18.185Z,952.23
2018-06-11T04:25:18.214Z,952.2
2018-06-11T04:26:18.239Z,952.22
2018-06-11T04:27:18.264Z,952.18
2018-06-11T04:28:18.291Z,952.19
2018-06-11T04:29:18.319Z,952.18
2018-06-11T04:30:18.344Z,952.17
2018-06-11T04:31:18.368Z,952.15
2018-06-11T04:32:18.393Z,952.13
2018-06-11T04:33:18.423Z,952.11
2018-06-11T04:34:18.446Z,952.13
2018-06-11T04:35:18.476Z,952.12
2018-06-11T04:36:18.500Z,952.06
2018-06-11T04:37:18.524Z,952.09
2018-06-11T04:38:18.552Z,952.1
2018-06-11T04:39:18.576Z,952.08
2018-06-11T04:40:18.603Z,952.13
2018-06-11T04:41:18.632Z,952.1
2018-06-11T04:42:18.658Z,952.11
2018-06-11T04:43:18.684Z,952.13
2018-06-11T04:44:18.709Z,952.1
2018-06-11T04:45:18.785Z,952.12
2018-06-11T04:46:18.762Z,952.16
2018-06-11T04:47:18.786Z,952.13
2018-06-11T04:48:18.812Z,952.13
2018-06-11T04:49:18.840Z,952.14
2018-06-11T04:50:18.864Z,952.13
2018-06-11T04:51:18.892Z,952.1
2018-06-11T04:52:18.918Z,952.15
2018-06-11T04:53:18.944Z,952.12
2018-06-11T04:54:18.970Z,952.12
2018-06-11T04:55:18.996Z,952.13
2018-06-11T04:56:19.029Z,952.18
2018-06-11T04:57:19.050Z,952.16
2018-06-11T04:58:19.078Z,952.24
2018-06-11T04:59:19.105Z,952.21
2018-06-11T05:00:19.134Z,952.24
2018-06-11T05:01:19.155Z,952.22
2018-06-11T05:02:19.184Z,952.23
2018-06-11T05:03:19.209Z,952.25
2018-06-11T05:04:19.237Z,952.25
2018-06-11T05:05:19.263Z,952.28
2018-06-11T05:06:19.288Z,952.27
2018-06-11T05:07:19.321Z,952.26
2018-06-11T05:08:19.348Z,952.26
2018-06-11T05:09:19.406Z,952.26
2018-06-11T05:10:19.397Z,952.29
2018-06-11T05:11:19.424Z,952.29
2018-06-11T05:12:19.449Z,952.31
2018-06-11T05:13:19.479Z,952.29
2018-06-11T05:14:19.502Z,952.27
2018-06-11T05:15:19.528Z,952.31
2018-06-11T05:16:19.558Z,952.26
2018-06-11T05:17:19.587Z,952.25
2018-06-11T05:18:19.611Z,952.23
2018-06-11T05:19:19.637Z,952.19
2018-06-11T05:20:19.665Z,952.18
2018-06-11T05:21:19.694Z,952.14
2018-06-11T05:22:19.719Z,952.17
2018-06-11T05:23:19.746Z,952.14
2018-06-11T05:24:19.772Z,952.19
2018-06-11T05:25:19.800Z,952.18
2018-06-11T05:26:19.827Z,952.21
2018-06-11T05:27:19.855Z,952.18
2018-06-11T05:28:19.881Z,952.16
2018-06-11T05:29:19.911Z,952.08
2018-06-11T05:30:19.934Z,952.13
2018-06-11T05:31:19.962Z,952.08
2018-06-11T05:32:19.990Z,952.06
2018-06-11T05:33:20.019Z,952.06
2018-06-11T05:34:20.043Z,952.05
2018-06-11T05:35:20.070Z,952.08
2018-06-11T05:36:20.101Z,952.06
2018-06-11T05:37:20.125Z,952.05
2018-06-11T05:38:20.154Z,952.01
2018-06-11T05:39:20.180Z,951.99
2018-06-11T05:40:20.250Z,951.98
2018-06-11T05:41:20.236Z,951.96
2018-06-11T05:42:20.261Z,951.97
2018-06-11T05:43:20.289Z,951.97
2018-06-11T05:44:20.315Z,951.98
2018-06-11T05:45:20.342Z,951.99
2018-06-11T05:46:20.370Z,951.94
2018-06-11T05:47:20.406Z,951.95
2018-06-11T05:48:20.423Z,951.95
2018-06-11T05:49:20.451Z,951.95
2018-06-11T05:50:20.478Z,951.93
2018-06-11T05:51:20.505Z,951.95
2018-06-11T05:52:20.534Z,951.95
2018-06-11T05:53:20.573Z,951.94
2018-06-11T05:54:20.590Z,951.92
2018-06-11T05:55:20.617Z,951.96
2018-06-11T05:56:20.643Z,951.93
2018-06-11T05:57:20.671Z,951.95
2018-06-11T05:58:20.698Z,951.92
2018-06-11T05:59:20.731Z,951.95
2018-06-11T06:00:20.753Z,951.97
2018-06-11T06:01:20.780Z,951.94
2018-06-11T06:02:20.808Z,951.98
2018-06-11T06:03:20.841Z,951.92
2018-06-11T06:04:20.863Z,951.93
2018-06-11T06:05:20.890Z,951.95
2018-06-11T06:06:20.920Z,951.98
2018-06-11T06:07:20.949Z,951.95
2018-06-11T06:08:20.972Z,951.98
2018-06-11T06:09:21.001Z,952.02
2018-06-11T06:10:21.028Z,952.01
2018-06-11T06:11:21.056Z,952.02
2018-06-11T06:12:21.083Z,952.04
2018-06-11T06:13:21.111Z,952.01
2018-06-11T06:14:21.139Z,952.02
2018-06-11T06:15:21.167Z,952.04
2018-06-11T06:16:21.194Z,952.07
2018-06-11T06:17:21.221Z,952.1
2018-06-11T06:18:21.249Z,952.09
2018-06-11T06:19:21.277Z,952.08
2018-06-11T06:20:21.305Z,952.09
2018-06-11T06:21:21.333Z,952.08
2018-06-11T06:22:21.361Z,952.12
2018-06-11T06:23:21.389Z,952.13
2018-06-11T06:24:21.418Z,952.15
2018-06-11T06:25:21.447Z,952.13
2018-06-11T06:26:21.473Z,952.17
2018-06-11T06:27:21.504Z,952.11
2018-06-11T06:28:21.531Z,952.19
2018-06-11T06:29:21.553Z,952.19
2018-06-11T06:30:21.584Z,952.15
2018-06-11T06:31:21.613Z,952.17
2018-06-11T06:32:21.641Z,952.15
2018-06-11T06:33:21.668Z,952.12
2018-06-11T06:34:21.787Z,952.13
2018-06-11T06:35:21.724Z,952.14
2018-06-11T06:36:21.753Z,952.14
2018-06-11T06:37:21.781Z,952.16
2018-06-11T06:38:21.811Z,952.12
2018-06-11T06:39:21.839Z,952.11
2018-06-11T06:40:21.866Z,952.06
2018-06-11T06:41:21.897Z,952.07
2018-06-11T06:42:21.924Z,952.06
2018-06-11T06:43:21.950Z,952.07
2018-06-11T06:44:21.978Z,952.05
2018-06-11T06:45:22.006Z,952.07
2018-06-11T06:46:22.037Z,952.09
2018-06-11T06:47:22.062Z,952.06
2018-06-11T06:48:22.093Z,952.06
2018-06-11T06:49:22.121Z,952.1
2018-06-11T06:50:22.150Z,952.1
2018-06-11T06:51:22.179Z,952.11
2018-06-11T06:52:22.208Z,952.12
2018-06-11T06:53:22.235Z,952.12
2018-06-11T06:54:22.288Z,952.16
2018-06-11T06:55:22.293Z,952.12
2018-06-11T06:56:22.322Z,952.14
2018-06-11T06:57:22.348Z,952.13
2018-06-11T06:58:22.377Z,952.08
2018-06-11T06:59:22.406Z,952.15
2018-06-11T07:00:22.436Z,952.17
2018-06-11T07:01:22.465Z,952.15
2018-06-11T07:02:22.504Z,952.19
2018-06-11T07:03:22.520Z,952.16
2018-06-11T07:04:22.548Z,952.19
2018-06-11T07:05:22.577Z,952.19
2018-06-11T07:06:22.606Z,952.2
2018-06-11T07:07:22.635Z,952.22
2018-06-11T07:08:22.664Z,952.22
2018-06-11T07:09:22.691Z,952.24
2018-06-11T07:10:22.722Z,952.26
2018-06-11T07:11:22.749Z,952.23
2018-06-11T07:12:22.795Z,952.24
2018-06-11T07:13:22.808Z,952.26
2018-06-11T07:14:22.834Z,952.23
2018-06-11T07:15:22.859Z,952.3
2018-06-11T07:16:22.888Z,952.31
2018-06-11T07:17:22.918Z,952.31
2018-06-11T07:18:22.949Z,952.37
2018-06-11T07:19:22.976Z,952.36
2018-06-11T07:20:23.004Z,952.43
2018-06-11T07:21:23.033Z,952.4
2018-06-11T07:22:23.061Z,952.44
2018-06-11T07:23:23.093Z,952.46
2018-06-11T07:24:23.121Z,952.44
2018-06-11T07:25:23.151Z,952.47
2018-06-11T07:26:23.180Z,952.47
2018-06-11T07:27:23.210Z,952.47
2018-06-11T07:28:23.242Z,952.46
2018-06-11T07:29:23.270Z,952.46
2018-06-11T07:30:23.294Z,952.42
2018-06-11T07:31:23.350Z,952.44
2018-06-11T07:32:23.353Z,952.43
2018-06-11T07:33:23.383Z,952.44
2018-06-11T07:34:23.413Z,952.45
2018-06-11T07:35:23.440Z,952.45
2018-06-11T07:36:23.469Z,952.44
2018-06-11T07:37:23.500Z,952.42
2018-06-11T07:38:23.527Z,952.46
2018-06-11T07:39:23.556Z,952.45
2018-06-11T07:40:23.586Z,952.46
2018-06-11T07:41:23.616Z,952.49
2018-06-11T07:42:23.644Z,952.5
2018-06-11T07:43:23.673Z,952.52
2018-06-11T07:44:23.703Z,952.49
2018-06-11T07:45:23.731Z,952.48
2018-06-11T07:46:23.760Z,952.48
2018-06-11T07:47:23.791Z,952.46
2018-06-11T07:48:23.820Z,952.48
2018-06-11T07:49:23.849Z,952.46
2018-06-11T07:50:23.879Z,952.46
2018-06-11T07:51:23.910Z,952.45
2018-06-11T07:52:23.938Z,952.4
2018-06-11T07:53:23.967Z,952.37
2018-06-11T07:54:23.997Z,952.4
2018-06-11T07:55:24.027Z,952.35
2018-06-11T07:56:24.056Z,952.38
2018-06-11T07:57:24.085Z,952.35
2018-06-11T07:58:24.114Z,952.34
2018-06-11T07:59:24.145Z,952.33
2018-06-11T08:00:24.173Z,952.34
2018-06-11T08:01:24.209Z,952.32
2018-06-11T08:02:24.232Z,952.36
2018-06-11T08:03:24.263Z,952.35
2018-06-11T08:04:24.293Z,952.32
2018-06-11T08:05:24.321Z,952.32
2018-06-11T08:06:24.351Z,952.35
2018-06-11T08:07:24.416Z,952.32
2018-06-11T08:08:24.412Z,952.29
2018-06-11T08:09:24.440Z,952.28
2018-06-11T08:10:24.471Z,952.24
2018-06-11T08:11:24.501Z,952.27
2018-06-11T08:12:24.530Z,952.27
2018-06-11T08:13:24.586Z,952.25
2018-06-11T08:14:24.589Z,952.28
2018-06-11T08:15:24.618Z,952.28
2018-06-11T08:16:24.648Z,952.26
2018-06-11T08:17:24.678Z,952.26
2018-06-11T08:18:24.705Z,952.2
2018-06-11T08:19:24.736Z,952.22
2018-06-11T08:20:24.768Z,952.18
2018-06-11T08:21:24.797Z,952.2
2018-06-11T08:22:24.827Z,952.2
2018-06-11T08:23:24.858Z,952.22
2018-06-11T08:24:24.888Z,952.17
2018-06-11T08:25:24.917Z,952.23
2018-06-11T08:26:24.949Z,952.23
2018-06-11T08:27:25.003Z,952.2
2018-06-11T08:28:25.011Z,952.21
2018-06-11T08:29:25.039Z,952.2
2018-06-11T08:30:25.069Z,952.18
2018-06-11T08:31:25.100Z,952.14
2018-06-11T08:32:25.130Z,952.17
2018-06-11T08:33:25.158Z,952.18
2018-06-11T08:34:25.189Z,952.2
2018-06-11T08:35:25.220Z,952.19
2018-06-11T08:36:25.249Z,952.19
2018-06-11T08:37:25.280Z,952.22
2018-06-11T08:38:25.311Z,952.26
2018-06-11T08:39:25.341Z,952.22
2018-06-11T08:40:25.371Z,952.26
2018-06-11T08:41:25.401Z,952.21
2018-06-11T08:42:25.430Z,952.28
2018-06-11T08:43:25.461Z,952.26
2018-06-11T08:44:25.491Z,952.19
2018-06-11T08:45:25.522Z,952.25
2018-06-11T08:46:25.551Z,952.23
2018-06-11T08:47:25.581Z,952.22
2018-06-11T08:48:25.631Z,952.21
2018-06-11T08:49:25.643Z,952.17
2018-06-11T08:50:25.674Z,952.19
2018-06-11T08:51:25.705Z,952.19
2018-06-11T08:52:25.735Z,952.17
2018-06-11T08:53:25.768Z,952.18
2018-06-11T08:54:25.797Z,952.15
2018-06-11T08:55:25.829Z,952.18
2018-06-11T08:56:25.864Z,952.17
2018-06-11T08:57:25.890Z,952.14
2018-06-11T08:58:25.919Z,952.15
2018-06-11T08:59:25.951Z,952.11
2018-06-11T09:00:25.981Z,952.15
2018-06-11T09:01:26.013Z,952.15
2018-06-11T09:02:26.042Z,952.13
2018-06-11T09:03:26.073Z,952.14
2018-06-11T09:04:26.106Z,952.14
2018-06-11T09:05:26.137Z,952.13
2018-06-11T09:06:26.166Z,952.14
2018-06-11T09:07:26.198Z,952.11
2018-06-11T09:08:26.235Z,952.1
2018-06-11T09:09:26.258Z,952.09
2018-06-11T09:10:26.291Z,952.12
2018-06-11T09:11:26.321Z,952.12
2018-06-11T09:12:26.354Z,952.1
2018-06-11T09:13:26.383Z,952.11
2018-06-11T09:14:26.414Z,952.14
2018-06-11T09:15:26.445Z,952.09
2018-06-11T09:16:26.478Z,952.09
2018-06-11T09:17:26.508Z,952.08
2018-06-11T09:18:26.682Z,952.06
2018-06-11T09:19:26.570Z,952.03
2018-06-11T09:20:26.601Z,952.05
2018-06-11T09:21:26.655Z,952.01
2018-06-11T09:22:26.669Z,952.02
2018-06-11T09:23:26.694Z,952.05
2018-06-11T09:24:26.725Z,952.02
2018-06-11T09:25:26.756Z,952.05
2018-06-11T09:26:26.788Z,952.08
2018-06-11T09:27:26.819Z,952.04
2018-06-11T09:28:26.848Z,952.01
2018-06-11T09:29:26.883Z,952.02
2018-06-11T09:30:26.912Z,952
2018-06-11T09:31:26.942Z,952.03
2018-06-11T09:32:26.974Z,952.01
2018-06-11T09:33:27.005Z,952
2018-06-11T09:34:27.038Z,952.03
2018-06-11T09:35:27.069Z,952.04
2018-06-11T09:36:27.099Z,952.03
2018-06-11T09:37:27.131Z,952.04
2018-06-11T09:38:27.163Z,952.06
2018-06-11T09:39:27.193Z,952.09
2018-06-11T09:40:27.224Z,952.08
2018-06-11T09:41:27.260Z,952.08
2018-06-11T09:42:27.287Z,952.09
2018-06-11T09:43:27.318Z,952.08
2018-06-11T09:44:27.355Z,952.08
2018-06-11T09:45:27.383Z,952.06
2018-06-11T09:46:27.414Z,952.12
2018-06-11T09:47:27.450Z,952.02
2018-06-11T09:48:27.476Z,951.98
2018-06-11T09:49:27.509Z,951.97
2018-06-11T09:50:27.540Z,951.97
2018-06-11T09:51:27.571Z,951.95
2018-06-11T09:52:27.603Z,951.92
2018-06-11T09:53:27.635Z,951.94
2018-06-11T09:54:27.672Z,951.89
2018-06-11T09:55:27.699Z,951.91
2018-06-11T09:56:27.736Z,951.87
2018-06-11T09:57:27.764Z,951.88
2018-06-11T09:58:27.798Z,951.85
2018-06-11T09:59:27.830Z,951.85
2018-06-11T10:00:27.866Z,951.83
2018-06-11T10:01:27.895Z,951.88
2018-06-11T10:02:27.928Z,951.89
2018-06-11T10:03:27.978Z,951.91
2018-06-11T10:04:27.995Z,951.93
2018-06-11T10:05:28.028Z,951.91
2018-06-11T10:06:28.061Z,951.9
2018-06-11T10:07:28.095Z,951.88
2018-06-11T10:08:28.126Z,951.87
2018-06-11T10:09:28.159Z,951.84
2018-06-11T10:10:28.191Z,951.87
2018-06-11T10:11:28.224Z,951.85
2018-06-11T10:12:28.264Z,951.82
2018-06-11T10:13:28.294Z,951.83
2018-06-11T10:14:28.326Z,951.79
2018-06-11T10:15:28.360Z,951.85
2018-06-11T10:16:28.396Z,951.8
2018-06-11T10:17:28.429Z,951.77
2018-06-11T10:18:28.466Z,951.8
2018-06-11T10:19:28.499Z,951.78
2018-06-11T10:20:28.536Z,951.74
2018-06-11T10:21:28.570Z,951.73
2018-06-11T10:22:28.603Z,951.71
2018-06-11T10:23:28.638Z,951.69
2018-06-11T10:24:28.673Z,951.7
2018-06-11T10:25:28.707Z,951.67
2018-06-11T10:26:28.741Z,951.63
2018-06-11T10:27:28.775Z,951.67
2018-06-11T10:28:28.809Z,951.67
2018-06-11T10:29:28.843Z,951.64
2018-06-11T10:30:28.876Z,951.68
2018-06-11T10:31:28.910Z,951.62
2018-06-11T10:32:28.946Z,951.63
2018-06-11T10:33:28.984Z,951.55
2018-06-11T10:34:29.015Z,951.62
2018-06-11T10:35:29.057Z,951.61
2018-06-11T10:36:29.085Z,951.64
2018-06-11T10:37:29.117Z,951.61
2018-06-11T10:38:29.152Z,951.59
2018-06-11T10:39:29.187Z,951.6
2018-06-11T10:40:29.221Z,951.58
2018-06-11T10:41:29.256Z,951.59
2018-06-11T10:42:29.289Z,951.56
2018-06-11T10:43:29.324Z,951.58
2018-06-11T10:44:29.360Z,951.58
2018-06-11T10:45:29.394Z,951.58
2018-06-11T10:46:29.431Z,951.6
2018-06-11T10:47:29.466Z,951.6
2018-06-11T10:48:29.500Z,951.57
2018-06-11T10:49:29.537Z,951.56
2018-06-11T10:50:29.570Z,951.57
2018-06-11T10:51:29.605Z,951.53
2018-06-11T10:52:29.680Z,951.52
2018-06-11T10:53:29.680Z,951.57
2018-06-11T10:54:29.711Z,951.54
2018-06-11T10:55:29.748Z,951.57
2018-06-11T10:56:29.781Z,951.55
2018-06-11T10:57:29.823Z,951.58
2018-06-11T10:58:29.856Z,951.54
2018-06-11T10:59:29.891Z,951.55
2018-06-11T11:00:29.927Z,951.59
2018-06-11T11:01:29.965Z,951.53
2018-06-11T11:02:30.013Z,951.5
2018-06-11T11:03:30.037Z,951.49
2018-06-11T11:04:30.087Z,951.4
2018-06-11T11:05:31.162Z,951.41
2018-06-11T11:06:30.149Z,951.4
2018-06-11T11:07:30.187Z,951.37
2018-06-11T11:08:30.219Z,951.38
2018-06-11T11:09:30.256Z,951.37
2018-06-11T11:10:30.292Z,951.32
2018-06-11T11:11:30.329Z,951.29
2018-06-11T11:12:30.383Z,951.31
2018-06-11T11:13:30.404Z,951.27
2018-06-11T11:14:30.439Z,951.2
2018-06-11T11:15:30.482Z,951.18
2018-06-11T11:16:30.515Z,951.21
2018-06-11T11:17:30.557Z,951.22
2018-06-11T11:18:30.588Z,951.15
2018-06-11T11:19:30.624Z,951.18
2018-06-11T11:20:30.662Z,951.13
2018-06-11T11:21:30.699Z,951.06
2018-06-11T11:22:30.735Z,951.07
2018-06-11T11:23:30.772Z,951.11
2018-06-11T11:24:30.809Z,951.04
2018-06-11T11:25:30.847Z,951.02
2018-06-11T11:26:30.881Z,951
2018-06-11T11:27:30.918Z,950.98
2018-06-11T11:28:30.968Z,950.98
2018-06-11T11:29:30.989Z,950.97
2018-06-11T11:30:31.026Z,950.89
2018-06-11T11:31:31.063Z,950.87
2018-06-11T11:32:31.104Z,950.86
2018-06-11T11:33:31.137Z,950.89
2018-06-11T11:34:31.173Z,950.82
2018-06-11T11:35:31.211Z,950.77
2018-06-11T11:36:31.252Z,950.82
2018-06-11T11:37:31.284Z,950.78
2018-06-11T11:38:31.322Z,950.8
2018-06-11T11:39:31.358Z,950.81
2018-06-11T11:40:31.394Z,950.75
2018-06-11T11:41:31.431Z,950.74
2018-06-11T11:42:31.469Z,950.74
2018-06-11T11:43:31.503Z,950.77
2018-06-11T11:44:31.541Z,950.69
2018-06-11T11:45:31.578Z,950.68
2018-06-11T11:46:31.614Z,950.66
2018-06-11T11:47:31.651Z,950.71
2018-06-11T11:48:31.688Z,950.62
2018-06-11T11:49:31.725Z,950.61
2018-06-11T11:50:31.762Z,950.59
2018-06-11T11:51:31.799Z,950.53
2018-06-11T11:52:31.838Z,950.52
2018-06-11T11:53:31.875Z,950.52
2018-06-11T11:54:31.921Z,950.47
2018-06-11T11:55:31.949Z,950.46
2018-06-11T11:56:31.986Z,950.4
2018-06-11T11:57:32.055Z,950.38
2018-06-11T11:58:32.063Z,950.33
2018-06-11T11:59:32.101Z,950.3
2018-06-11T12:00:32.137Z,950.31
2018-06-11T12:01:32.174Z,950.25
2018-06-11T12:02:32.213Z,950.24
2018-06-11T12:03:32.251Z,950.26
2018-06-11T12:04:32.292Z,950.29
2018-06-11T12:05:32.325Z,950.29
2018-06-11T12:06:32.363Z,950.3
2018-06-11T12:07:32.460Z,950.25
2018-06-11T12:08:32.436Z,950.23
2018-06-11T12:09:32.475Z,950.27
2018-06-11T12:10:32.514Z,950.22
2018-06-11T12:11:32.552Z,950.24
2018-06-11T12:12:32.589Z,950.25
2018-06-11T12:13:32.626Z,950.18
2018-06-11T12:14:32.664Z,950.19
2018-06-11T12:15:32.702Z,950.18
2018-06-11T12:16:32.737Z,950.15
2018-06-11T12:17:32.776Z,950.21
2018-06-11T12:18:32.819Z,950.18
2018-06-11T12:19:32.851Z,950.13
2018-06-11T12:20:32.894Z,950.15
2018-06-11T12:21:32.929Z,950.14
2018-06-11T12:22:32.969Z,950.13
2018-06-11T12:23:33.005Z,950.14
2018-06-11T12:24:33.049Z,950.13
2018-06-11T12:25:33.082Z,950.19
2018-06-11T12:26:33.121Z,950.15
2018-06-11T12:27:33.161Z,950.12
2018-06-11T12:28:33.199Z,950.15
2018-06-11T12:29:33.243Z,950.22
2018-06-11T12:30:33.275Z,950.21
2018-06-11T12:31:33.314Z,950.19
2018-06-11T12:32:33.357Z,950.22
2018-06-11T12:33:33.392Z,950.18
2018-06-11T12:34:33.431Z,950.12
2018-06-11T12:35:33.469Z,950.04
2018-06-11T12:36:33.509Z,949.97
2018-06-11T12:37:33.547Z,949.93
2018-06-11T12:38:33.587Z,949.96
2018-06-11T12:39:33.626Z,949.87
2018-06-11T12:40:33.664Z,949.88
2018-06-11T12:41:33.705Z,949.84
2018-06-11T12:42:33.741Z,949.82
2018-06-11T12:43:33.779Z,949.83
2018-06-11T12:44:33.817Z,949.84
2018-06-11T12:45:33.854Z,949.83
2018-06-11T12:46:33.892Z,949.88
2018-06-11T12:47:33.953Z,949.86
2018-06-11T12:48:33.969Z,949.9